This is the latest recevied weather packets stored in our database for station/object KJ4W. If no packets are shown the sender has not sent any weather packets the latest 10 day(s).
| Time | Temp. | Humidity | Pressure | Rain* | Wind** | Luminosity | Snow |
|---|---|---|---|---|---|---|---|
| 1777417131 | 21.11° C | 88% | 1010.5 hPa | 0 mm | - | - | - |
| 1777416231 | 21.11° C | 91% | 1011.5 hPa | 0 mm | - | - | - |
| 1777415332 | 22.22° C | 94% | 1011 hPa | 0 mm | - | - | - |
| 1777414432 | 22.22° C | 92% | 1011.7 hPa | 0 mm | - | - | - |
| 1777413531 | 23.33° C | 89% | 1011.9 hPa | 0 mm | - | - | - |
| 1777411735 | 25° C | 78% | 1011.7 hPa | 0 mm | - | - | - |
| 1777410833 | 25° C | 76% | 1012.5 hPa | 0 mm | - | - | - |
| 1777409932 | 25.56° C | 76% | 1011.6 hPa | 0 mm | - | - | - |
| 1777409032 | 26.11° C | 74% | 1011.4 hPa | 0 mm | - | - | - |
| 1777408131 | 26.11° C | 73% | 1011.5 hPa | 0 mm | - | - | - |
| 1777407231 | 26.67° C | 70% | 1012.4 hPa | 0 mm | - | - | - |
| 1777406333 | 26.67° C | 71% | 1012.5 hPa | 0 mm | - | - | - |
| 1777405433 | 26.67° C | 71% | 1012.8 hPa | 0 mm | - | - | - |
| 1777403634 | 27.22° C | 69% | 1013.8 hPa | 0 mm | - | - | - |
| 1777401833 | 26.11° C | 71% | 1014.3 hPa | 0 mm | - | - | - |
| 1777400932 | 26.11° C | 70% | 1014.6 hPa | 0 mm | - | - | - |
| 1777400032 | 26.11° C | 70% | 1014.5 hPa | 0 mm | - | - | - |
| 1777399133 | 26.11° C | 71% | 1014.6 hPa | 0 mm | - | - | - |
| 1777398233 | 25.56° C | 73% | 1014.5 hPa | 0 mm | - | - | - |
| 1777397332 | 25.56° C | 76% | 1014.5 hPa | 0 mm | - | - | - |
| 1777396432 | 24.44° C | 79% | 1014.9 hPa | 0 mm | - | - | - |
| 1777395532 | 23.89° C | 81% | 1015 hPa | 0 mm | - | - | - |
| 1777394633 | 23.33° C | 82% | 1015.2 hPa | 0 mm | - | - | - |
| 1777393731 | 23.33° C | 82% | 1015.3 hPa | 0 mm | - | - | - |
| 1777392831 | 22.78° C | 83% | 1015.4 hPa | 0 mm | - | - | - |
* Rain latest hour (hover to see other rain measurements)
** Current wind speed in m/s (hover to see current wind gust speed)